createdAt,value
2017-04-13T00:00:37.062Z,99.99
2017-04-13T00:01:36.733Z,99.99
2017-04-13T00:02:37.055Z,99.99
2017-04-13T00:03:37.001Z,99.99
2017-04-13T00:04:37.013Z,99.99
2017-04-13T00:05:36.957Z,99.99
2017-04-13T00:06:36.941Z,99.99
2017-04-13T00:07:36.922Z,99.99
2017-04-13T00:08:36.906Z,99.99
2017-04-13T00:09:36.882Z,99.99
2017-04-13T00:10:36.855Z,99.99
2017-04-13T00:11:36.832Z,99.99
2017-04-13T00:12:36.530Z,99.99
2017-04-13T00:13:36.492Z,99.99
2017-04-13T00:14:36.891Z,99.99
2017-04-13T00:15:36.761Z,99.99
2017-04-13T00:16:36.733Z,99.99
2017-04-13T00:17:36.722Z,99.99
2017-04-13T00:18:36.699Z,99.99
2017-04-13T00:19:36.669Z,99.99
2017-04-13T00:20:36.359Z,99.99
2017-04-13T00:21:36.634Z,99.99
2017-04-13T00:22:36.612Z,99.99
2017-04-13T00:23:36.285Z,99.99
2017-04-13T00:24:36.575Z,99.99
2017-04-13T00:25:36.571Z,99.99
2017-04-13T00:26:36.286Z,99.99
2017-04-13T00:27:36.220Z,99.99
2017-04-13T00:28:36.182Z,99.99
2017-04-13T00:29:36.183Z,99.99
2017-04-13T00:30:36.451Z,99.99
2017-04-13T00:31:36.439Z,99.99
2017-04-13T00:32:36.413Z,99.99
2017-04-13T00:33:36.440Z,99.99
2017-04-13T00:34:36.432Z,99.99
2017-04-13T00:35:36.363Z,99.99
2017-04-13T00:36:36.335Z,99.99
2017-04-13T00:37:36.014Z,99.99
2017-04-13T00:38:36.064Z,99.99
2017-04-13T00:39:35.961Z,99.99
2017-04-13T00:40:36.254Z,99.99
2017-04-13T00:41:35.940Z,99.99
2017-04-13T00:42:36.221Z,99.99
2017-04-13T00:43:36.203Z,99.99
2017-04-13T00:44:36.172Z,99.99
2017-04-13T00:45:36.160Z,99.99
2017-04-13T00:46:36.154Z,99.99
2017-04-13T00:47:36.113Z,99.99
2017-04-13T00:48:36.092Z,99.99
2017-04-13T00:49:36.074Z,99.99
2017-04-13T00:50:35.741Z,99.99
2017-04-13T00:51:36.093Z,99.99
2017-04-13T00:52:36.021Z,99.99
2017-04-13T00:53:35.687Z,99.99
2017-04-13T00:54:35.665Z,99.99
2017-04-13T00:55:35.949Z,99.99
2017-04-13T00:56:35.935Z,99.99
2017-04-13T00:57:35.927Z,99.99
2017-04-13T00:58:35.596Z,99.99
2017-04-13T00:59:35.561Z,99.99
2017-04-13T01:00:35.857Z,99.99
2017-04-13T01:01:35.833Z,99.99
2017-04-13T01:02:35.506Z,99.99
2017-04-13T01:03:35.793Z,99.99
2017-04-13T01:04:35.772Z,99.99
2017-04-13T01:05:35.756Z,99.99
2017-04-13T01:06:35.727Z,99.99
2017-04-13T01:07:35.706Z,99.99
2017-04-13T01:08:35.692Z,99.99
2017-04-13T01:09:35.676Z,99.99
2017-04-13T01:10:35.343Z,99.99
2017-04-13T01:11:35.630Z,99.99
2017-04-13T01:12:35.613Z,99.99
2017-04-13T01:13:35.591Z,99.99
2017-04-13T01:14:35.262Z,99.99
2017-04-13T01:15:35.555Z,99.99
2017-04-13T01:16:35.544Z,99.99
2017-04-13T01:17:35.512Z,99.99
2017-04-13T01:18:35.190Z,99.99
2017-04-13T01:19:35.162Z,99.99
2017-04-13T01:20:35.464Z,99.99
2017-04-13T01:21:35.430Z,99.99
2017-04-13T01:22:35.413Z,99.99
2017-04-13T01:23:35.100Z,99.99
2017-04-13T01:24:35.377Z,99.99
2017-04-13T01:25:35.058Z,99.99
2017-04-13T01:26:35.333Z,99.99
2017-04-13T01:27:35.312Z,99.99
2017-04-13T01:28:35.296Z,99.99
2017-04-13T01:29:35.268Z,99.99
2017-04-13T01:30:34.952Z,99.99
2017-04-13T01:31:35.280Z,99.99
2017-04-13T01:32:35.216Z,99.99
2017-04-13T01:33:34.883Z,99.99
2017-04-13T01:34:35.165Z,99.99
2017-04-13T01:35:34.846Z,99.99
2017-04-13T01:36:35.211Z,99.99
2017-04-13T01:37:34.810Z,99.99
2017-04-13T01:38:35.187Z,99.99
2017-04-13T01:39:35.072Z,99.99
2017-04-13T01:40:35.113Z,99.99
2017-04-13T01:41:35.080Z,99.99
2017-04-13T01:42:34.699Z,99.99
2017-04-13T01:43:34.682Z,99.99
2017-04-13T01:44:34.684Z,99.99
2017-04-13T01:45:34.649Z,99.99
2017-04-13T01:46:34.944Z,99.99
2017-04-13T01:47:34.665Z,99.99
2017-04-13T01:48:34.943Z,99.99
2017-04-13T01:49:34.612Z,99.99
2017-04-13T01:50:34.853Z,99.99
2017-04-13T01:51:34.832Z,99.99
2017-04-13T01:52:34.505Z,99.99
2017-04-13T01:53:34.835Z,99.99
2017-04-13T01:54:34.925Z,99.99
2017-04-13T01:55:34.752Z,99.99
2017-04-13T01:56:34.412Z,99.99
2017-04-13T01:57:34.398Z,99.99
2017-04-13T01:58:34.732Z,99.99
2017-04-13T01:59:34.663Z,99.99
2017-04-13T02:00:34.655Z,99.99
2017-04-13T02:01:34.323Z,99.99
2017-04-13T02:02:34.662Z,99.99
2017-04-13T02:03:34.581Z,99.99
2017-04-13T02:04:34.555Z,99.99
2017-04-13T02:05:34.237Z,99.99
2017-04-13T02:06:34.529Z,99.99
2017-04-13T02:07:34.500Z,99.99
2017-04-13T02:08:34.490Z,99.99
2017-04-13T02:09:34.462Z,99.99
2017-04-13T02:10:34.140Z,99.99
2017-04-13T02:11:34.425Z,99.99
2017-04-13T02:12:34.403Z,99.99
2017-04-13T02:13:34.384Z,99.99
2017-04-13T02:14:34.365Z,99.99
2017-04-13T02:15:34.340Z,99.99
2017-04-13T02:16:34.332Z,99.99
2017-04-13T02:17:34.304Z,99.99
2017-04-13T02:18:34.294Z,99.99
2017-04-13T02:19:33.961Z,99.99
2017-04-13T02:20:34.235Z,99.99
2017-04-13T02:21:34.223Z,99.99
2017-04-13T02:22:33.895Z,99.99
2017-04-13T02:23:33.874Z,99.99
2017-04-13T02:24:34.178Z,99.99
2017-04-13T02:25:34.144Z,99.99
2017-04-13T02:26:34.125Z,99.99
2017-04-13T02:27:34.098Z,99.99
2017-04-13T02:28:33.778Z,99.99
2017-04-13T02:29:34.052Z,99.99
2017-04-13T02:30:34.040Z,99.99
2017-04-13T02:31:34.020Z,99.99
2017-04-13T02:32:34.005Z,99.99
2017-04-13T02:33:33.673Z,99.99
2017-04-13T02:34:33.956Z,99.99
2017-04-13T02:35:33.633Z,99.99
2017-04-13T02:36:33.926Z,99.99
2017-04-13T02:37:33.904Z,99.99
2017-04-13T02:38:33.874Z,99.99
2017-04-13T02:39:33.560Z,99.99
2017-04-13T02:40:33.836Z,99.99
2017-04-13T02:41:33.837Z,99.99
2017-04-13T02:42:33.796Z,99.99
2017-04-13T02:43:33.789Z,99.99
2017-04-13T02:44:33.754Z,99.99
2017-04-13T02:45:33.734Z,99.99
2017-04-13T02:46:33.728Z,99.99
2017-04-13T02:47:33.696Z,99.99
2017-04-13T02:48:33.676Z,99.99
2017-04-13T02:49:33.674Z,99.99
2017-04-13T02:50:33.644Z,99.99
2017-04-13T02:51:33.663Z,99.99
2017-04-13T02:52:33.597Z,99.99
2017-04-13T02:53:33.676Z,99.99
2017-04-13T02:54:33.555Z,99.99
2017-04-13T02:55:33.583Z,99.99
2017-04-13T02:56:33.203Z,99.99
2017-04-13T02:57:33.537Z,99.99
2017-04-13T02:58:33.467Z,99.99
2017-04-13T02:59:33.454Z,99.99
2017-04-13T03:00:33.454Z,99.99
2017-04-13T03:01:33.423Z,99.99
2017-04-13T03:02:33.393Z,99.99
2017-04-13T03:03:33.444Z,99.99
2017-04-13T03:04:33.047Z,99.99
2017-04-13T03:05:33.414Z,99.99
2017-04-13T03:06:33.305Z,99.99
2017-04-13T03:07:33.286Z,99.99
2017-04-13T03:08:33.272Z,99.99
2017-04-13T03:09:33.311Z,99.99
2017-04-13T03:10:32.925Z,99.99
2017-04-13T03:11:33.213Z,99.99
2017-04-13T03:12:32.883Z,99.99
2017-04-13T03:13:32.945Z,99.99
2017-04-13T03:14:32.842Z,99.99
2017-04-13T03:15:32.827Z,99.99
2017-04-13T03:16:32.793Z,99.99
2017-04-13T03:17:33.085Z,99.99
2017-04-13T03:18:33.114Z,99.99
2017-04-13T03:19:32.804Z,99.99
2017-04-13T03:20:32.716Z,99.99
2017-04-13T03:21:33.013Z,99.99
2017-04-13T03:22:32.983Z,99.99
2017-04-13T03:23:33.064Z,99.99
2017-04-13T03:24:32.643Z,99.99
2017-04-13T03:25:32.625Z,99.99
2017-04-13T03:26:32.947Z,99.99
2017-04-13T03:27:32.650Z,99.99
2017-04-13T03:28:32.864Z,99.99
2017-04-13T03:29:32.912Z,99.99
2017-04-13T03:30:32.816Z,99.99
2017-04-13T03:31:32.543Z,99.99
2017-04-13T03:32:32.778Z,99.99
2017-04-13T03:33:32.853Z,99.99
2017-04-13T03:34:32.739Z,99.99
2017-04-13T03:35:32.735Z,99.99
2017-04-13T03:36:32.714Z,99.99
2017-04-13T03:37:32.685Z,99.99
2017-04-13T03:38:32.683Z,99.99
2017-04-13T03:39:32.336Z,99.99
2017-04-13T03:40:32.614Z,99.99
2017-04-13T03:41:32.594Z,99.99
2017-04-13T03:42:32.266Z,99.99
2017-04-13T03:43:32.553Z,99.99
2017-04-13T03:44:32.533Z,99.99
2017-04-13T03:45:32.512Z,99.99
2017-04-13T03:46:32.493Z,99.99
2017-04-13T03:47:32.474Z,99.99
2017-04-13T03:48:32.152Z,99.99
2017-04-13T03:49:32.122Z,99.99
2017-04-13T03:50:32.115Z,99.99
2017-04-13T03:51:32.083Z,99.99
2017-04-13T03:52:32.380Z,99.99
2017-04-13T03:53:32.043Z,99.99
2017-04-13T03:54:32.035Z,99.99
2017-04-13T03:55:32.013Z,99.99
2017-04-13T03:56:32.300Z,99.99
2017-04-13T03:57:32.264Z,99.99
2017-04-13T03:58:31.947Z,99.99
2017-04-13T03:59:31.926Z,99.99
2017-04-13T04:00:32.245Z,99.99
2017-04-13T04:01:31.890Z,99.99
2017-04-13T04:02:32.168Z,99.99
2017-04-13T04:03:32.142Z,99.99
2017-04-13T04:04:31.831Z,99.99
2017-04-13T04:05:31.794Z,99.99
2017-04-13T04:06:32.085Z,99.99
2017-04-13T04:07:32.072Z,99.99
2017-04-13T04:08:31.734Z,99.99
2017-04-13T04:09:32.021Z,99.99
2017-04-13T04:10:31.995Z,99.99
2017-04-13T04:11:31.983Z,99.99
2017-04-13T04:12:31.656Z,99.99
2017-04-13T04:13:31.944Z,99.99
2017-04-13T04:14:31.616Z,99.99
2017-04-13T04:15:31.904Z,99.99
2017-04-13T04:16:31.882Z,99.99
2017-04-13T04:17:31.865Z,99.99
2017-04-13T04:18:31.848Z,99.99
2017-04-13T04:19:31.516Z,99.99
2017-04-13T04:20:31.796Z,99.99
2017-04-13T04:21:31.481Z,99.99
2017-04-13T04:22:31.768Z,99.99
2017-04-13T04:23:31.449Z,99.99
2017-04-13T04:24:31.726Z,99.99
2017-04-13T04:25:31.383Z,99.99
2017-04-13T04:26:31.674Z,99.99
2017-04-13T04:27:31.673Z,99.99
2017-04-13T04:28:31.635Z,99.99
2017-04-13T04:29:31.617Z,99.99
2017-04-13T04:30:31.595Z,99.99
2017-04-13T04:31:31.593Z,99.99
2017-04-13T04:32:31.575Z,99.99
2017-04-13T04:33:31.543Z,99.99
2017-04-13T04:34:31.524Z,99.99
2017-04-13T04:35:31.494Z,99.99
2017-04-13T04:36:31.469Z,99.99
2017-04-13T04:37:31.463Z,99.99
2017-04-13T04:38:31.434Z,99.99
2017-04-13T04:39:31.422Z,99.99
2017-04-13T04:40:31.396Z,99.99
2017-04-13T04:41:31.377Z,99.99
2017-04-13T04:42:31.353Z,99.99
2017-04-13T04:43:31.325Z,99.99
2017-04-13T04:44:31.325Z,99.99
2017-04-13T04:45:31.295Z,99.99
2017-04-13T04:46:31.273Z,99.99
2017-04-13T04:47:31.254Z,99.99
2017-04-13T04:48:31.230Z,99.99
2017-04-13T04:49:31.214Z,99.99
2017-04-13T04:50:31.203Z,99.99
2017-04-13T04:51:30.864Z,99.99
2017-04-13T04:52:30.833Z,99.99
2017-04-13T04:53:31.125Z,99.99
2017-04-13T04:54:31.102Z,99.99
2017-04-13T04:55:31.083Z,99.99
2017-04-13T04:56:31.073Z,99.99
2017-04-13T04:57:31.037Z,99.99
2017-04-13T04:58:31.022Z,99.99
2017-04-13T04:59:31.003Z,99.99
2017-04-13T05:00:30.984Z,99.99
2017-04-13T05:01:30.700Z,99.99
2017-04-13T05:02:30.636Z,99.99
2017-04-13T05:03:30.924Z,99.99
2017-04-13T05:04:30.903Z,99.99
2017-04-13T05:05:30.887Z,99.99
2017-04-13T05:06:30.861Z,99.99
2017-04-13T05:07:30.587Z,99.99
2017-04-13T05:08:30.839Z,99.99
2017-04-13T05:09:30.797Z,99.99
2017-04-13T05:10:30.789Z,99.99
2017-04-13T05:11:30.760Z,99.99
2017-04-13T05:12:30.438Z,99.99
2017-04-13T05:13:30.723Z,99.99
2017-04-13T05:14:30.690Z,99.99
2017-04-13T05:15:30.684Z,99.99
2017-04-13T05:16:30.349Z,99.99
2017-04-13T05:17:30.634Z,99.99
2017-04-13T05:18:30.306Z,99.99
2017-04-13T05:19:30.592Z,99.99
2017-04-13T05:20:30.574Z,99.99
2017-04-13T05:21:30.244Z,99.99
2017-04-13T05:22:30.530Z,99.99
2017-04-13T05:23:30.204Z,99.99
2017-04-13T05:24:30.493Z,99.99
2017-04-13T05:25:30.474Z,99.99
2017-04-13T05:26:30.454Z,99.99
2017-04-13T05:27:30.432Z,99.99
2017-04-13T05:28:30.409Z,99.99
2017-04-13T05:29:30.402Z,99.99
2017-04-13T05:30:30.376Z,99.99
2017-04-13T05:31:30.364Z,99.99
2017-04-13T05:32:30.322Z,99.99
2017-04-13T05:33:30.303Z,99.99
2017-04-13T05:34:30.295Z,99.99
2017-04-13T05:35:30.275Z,99.99
2017-04-13T05:36:30.255Z,99.99
2017-04-13T05:37:29.926Z,99.99
2017-04-13T05:38:30.213Z,99.99
2017-04-13T05:39:29.883Z,99.99
2017-04-13T05:40:30.162Z,99.99
2017-04-13T05:41:30.159Z,99.99
2017-04-13T05:42:30.128Z,99.99
2017-04-13T05:43:30.110Z,99.99
2017-04-13T05:44:30.143Z,99.99
2017-04-13T05:45:29.757Z,99.99
2017-04-13T05:46:30.042Z,99.99
2017-04-13T05:47:30.021Z,99.99
2017-04-13T05:48:30.014Z,99.99
2017-04-13T05:49:29.983Z,99.99
2017-04-13T05:50:29.968Z,99.99
2017-04-13T05:51:29.941Z,99.99
2017-04-13T05:52:29.616Z,99.99
2017-04-13T05:53:29.922Z,99.99
2017-04-13T05:54:29.883Z,99.99
2017-04-13T05:55:29.865Z,99.99
2017-04-13T05:56:29.843Z,99.99
2017-04-13T05:57:29.838Z,99.99
2017-04-13T05:58:29.501Z,99.99
2017-04-13T05:59:29.775Z,99.99
2017-04-13T06:00:29.465Z,99.99
2017-04-13T06:01:29.741Z,99.99
2017-04-13T06:02:29.418Z,99.99
2017-04-13T06:03:29.708Z,99.99
2017-04-13T06:04:29.684Z,99.99
2017-04-13T06:05:29.662Z,99.99
2017-04-13T06:06:29.332Z,99.99
2017-04-13T06:07:29.328Z,99.99
2017-04-13T06:08:29.594Z,99.99
2017-04-13T06:09:29.593Z,99.99
2017-04-13T06:10:29.254Z,99.99
2017-04-13T06:11:29.591Z,99.99
2017-04-13T06:12:29.212Z,99.99
2017-04-13T06:13:29.196Z,99.99
2017-04-13T06:14:29.488Z,99.99
2017-04-13T06:15:29.456Z,99.99
2017-04-13T06:16:29.436Z,99.99
2017-04-13T06:17:29.487Z,99.99
2017-04-13T06:18:29.411Z,99.99
2017-04-13T06:19:29.383Z,99.99
2017-04-13T06:20:29.362Z,99.99
2017-04-13T06:21:29.044Z,99.99
2017-04-13T06:22:29.323Z,99.99
2017-04-13T06:23:29.315Z,99.99
2017-04-13T06:24:29.282Z,99.99
2017-04-13T06:25:28.966Z,99.99
2017-04-13T06:26:28.937Z,99.99
2017-04-13T06:27:29.221Z,99.99
2017-04-13T06:28:29.224Z,99.99
2017-04-13T06:29:28.867Z,99.99
2017-04-13T06:30:28.855Z,99.99
2017-04-13T06:31:29.143Z,99.99
2017-04-13T06:32:29.123Z,99.99
2017-04-13T06:33:29.109Z,99.99
2017-04-13T06:34:29.084Z,99.99
2017-04-13T06:35:28.743Z,99.99
2017-04-13T06:36:29.039Z,99.99
2017-04-13T06:37:29.030Z,99.99
2017-04-13T06:38:29.004Z,99.99
2017-04-13T06:39:28.978Z,99.99
2017-04-13T06:40:28.975Z,99.99
2017-04-13T06:41:28.953Z,99.99
2017-04-13T06:42:28.946Z,99.99
2017-04-13T06:43:28.902Z,99.99
2017-04-13T06:44:28.888Z,99.99
2017-04-13T06:45:28.878Z,99.99
2017-04-13T06:46:28.844Z,99.99
2017-04-13T06:47:28.821Z,99.99
2017-04-13T06:48:28.791Z,99.99
2017-04-13T06:49:28.786Z,99.99
2017-04-13T06:50:28.761Z,99.99
2017-04-13T06:51:28.744Z,99.99
2017-04-13T06:52:28.421Z,99.99
2017-04-13T06:53:28.713Z,99.99
2017-04-13T06:54:28.680Z,99.99
2017-04-13T06:55:28.667Z,99.99
2017-04-13T06:56:28.651Z,99.99
2017-04-13T06:57:28.631Z,99.99
2017-04-13T06:58:28.661Z,99.99
2017-04-13T06:59:28.583Z,99.99
2017-04-13T07:00:28.580Z,99.99
2017-04-13T07:01:28.540Z,99.99
2017-04-13T07:02:28.524Z,99.99
2017-04-13T07:03:28.502Z,99.99
2017-04-13T07:04:28.498Z,99.99
2017-04-13T07:05:28.462Z,99.99
2017-04-13T07:06:28.440Z,99.99
2017-04-13T07:07:28.121Z,99.99
2017-04-13T07:08:28.091Z,99.99
2017-04-13T07:09:28.378Z,99.99
2017-04-13T07:10:28.073Z,99.99
2017-04-13T07:11:28.350Z,99.99
2017-04-13T07:12:28.022Z,99.99
2017-04-13T07:13:28.351Z,99.99
2017-04-13T07:14:28.287Z,99.99
2017-04-13T07:15:27.962Z,99.99
2017-04-13T07:16:27.942Z,99.99
2017-04-13T07:17:28.241Z,99.99
2017-04-13T07:18:28.212Z,99.99
2017-04-13T07:19:28.192Z,99.99
2017-04-13T07:20:28.179Z,99.99
2017-04-13T07:21:28.150Z,99.99
2017-04-13T07:22:28.129Z,99.99
2017-04-13T07:23:27.809Z,99.99
2017-04-13T07:24:28.130Z,99.99
2017-04-13T07:25:28.082Z,99.99
2017-04-13T07:26:28.052Z,99.99
2017-04-13T07:27:28.041Z,99.99
2017-04-13T07:28:28.020Z,99.99
2017-04-13T07:29:27.699Z,99.99
2017-04-13T07:30:27.672Z,99.99
2017-04-13T07:31:28.011Z,99.99
2017-04-13T07:32:27.937Z,99.99
2017-04-13T07:33:28.036Z,99.99
2017-04-13T07:34:28.036Z,99.99
2017-04-13T07:35:27.901Z,99.99
2017-04-13T07:36:27.870Z,99.99
2017-04-13T07:37:27.892Z,99.99
2017-04-13T07:38:27.825Z,99.99
2017-04-13T07:39:27.800Z,99.99
2017-04-13T07:40:27.873Z,99.99
2017-04-13T07:41:27.773Z,99.99
2017-04-13T07:42:27.430Z,99.99
2017-04-13T07:43:27.721Z,99.99
2017-04-13T07:44:27.395Z,99.99
2017-04-13T07:45:27.682Z,99.99
2017-04-13T07:46:27.363Z,99.99
2017-04-13T07:47:27.643Z,99.99
2017-04-13T07:48:27.310Z,99.99
2017-04-13T07:49:27.606Z,99.99
2017-04-13T07:50:27.584Z,99.99
2017-04-13T07:51:27.570Z,99.99
2017-04-13T07:52:27.543Z,99.99
2017-04-13T07:53:27.220Z,99.99
2017-04-13T07:54:27.510Z,99.99
2017-04-13T07:55:27.492Z,99.99
2017-04-13T07:56:27.468Z,99.99
2017-04-13T07:57:27.462Z,99.99
2017-04-13T07:58:27.131Z,99.99
2017-04-13T07:59:27.412Z,99.99
2017-04-13T08:00:27.079Z,99.99
2017-04-13T08:01:27.381Z,99.99
2017-04-13T08:02:27.351Z,99.99
2017-04-13T08:03:27.330Z,99.99
2017-04-13T08:04:27.308Z,99.99
2017-04-13T08:05:27.297Z,99.99
2017-04-13T08:06:27.281Z,99.99
2017-04-13T08:07:27.291Z,99.99
2017-04-13T08:08:27.241Z,99.99
2017-04-13T08:09:27.260Z,99.99
2017-04-13T08:10:27.232Z,99.99
2017-04-13T08:11:27.191Z,99.99
2017-04-13T08:12:27.161Z,99.99
2017-04-13T08:13:27.141Z,99.99
2017-04-13T08:14:27.123Z,99.99
2017-04-13T08:15:27.132Z,99.99
2017-04-13T08:16:27.084Z,99.99
2017-04-13T08:17:27.143Z,99.99
2017-04-13T08:18:27.051Z,99.99
2017-04-13T08:19:27.030Z,99.99
2017-04-13T08:20:27.028Z,99.99
2017-04-13T08:21:27.002Z,99.99
2017-04-13T08:22:26.990Z,99.99
2017-04-13T08:23:26.960Z,99.99
2017-04-13T08:24:26.935Z,99.99
2017-04-13T08:25:26.918Z,99.99
2017-04-13T08:26:26.891Z,99.99
2017-04-13T08:27:26.881Z,99.99
2017-04-13T08:28:26.852Z,99.99
2017-04-13T08:29:26.873Z,99.99
2017-04-13T08:30:26.813Z,99.99
2017-04-13T08:31:26.801Z,99.99
2017-04-13T08:32:26.471Z,99.99
2017-04-13T08:33:26.773Z,99.99
2017-04-13T08:34:26.742Z,99.99
2017-04-13T08:35:26.742Z,99.99
2017-04-13T08:36:26.704Z,99.99
2017-04-13T08:37:26.683Z,99.99
2017-04-13T08:38:26.680Z,99.99
2017-04-13T08:39:26.642Z,99.99
2017-04-13T08:40:26.626Z,99.99
2017-04-13T08:41:26.297Z,99.99
2017-04-13T08:42:26.584Z,99.99
2017-04-13T08:43:26.575Z,99.99
2017-04-13T08:44:26.245Z,99.99
2017-04-13T08:45:26.536Z,99.99
2017-04-13T08:46:26.515Z,99.99
2017-04-13T08:47:26.495Z,99.99
2017-04-13T08:48:26.494Z,99.99
2017-04-13T08:49:26.466Z,99.99
2017-04-13T08:50:26.448Z,99.99
2017-04-13T08:51:26.424Z,99.99
2017-04-13T08:52:26.407Z,99.99
2017-04-13T08:53:26.396Z,99.99
2017-04-13T08:54:26.391Z,99.99
2017-04-13T08:55:26.459Z,99.99
2017-04-13T08:56:26.335Z,99.99
2017-04-13T08:57:26.001Z,99.99
2017-04-13T08:58:26.298Z,99.99
2017-04-13T08:59:26.271Z,99.99
2017-04-13T09:00:25.951Z,99.99
2017-04-13T09:01:26.237Z,99.99
2017-04-13T09:02:26.221Z,99.99
2017-04-13T09:03:26.202Z,99.99
2017-04-13T09:04:26.188Z,99.99
2017-04-13T09:05:25.862Z,99.99
2017-04-13T09:06:26.152Z,99.99
2017-04-13T09:07:26.142Z,99.99
2017-04-13T09:08:26.109Z,99.99
2017-04-13T09:09:26.097Z,99.99
2017-04-13T09:10:25.762Z,99.99
2017-04-13T09:11:26.051Z,99.99
2017-04-13T09:12:26.034Z,99.85
2017-04-13T09:13:25.719Z,99.99
2017-04-13T09:14:26.004Z,99.95
2017-04-13T09:15:25.991Z,99.95
2017-04-13T09:16:25.962Z,99.99
2017-04-13T09:17:25.653Z,99.76
2017-04-13T09:18:25.929Z,99.85
2017-04-13T09:19:25.605Z,99.76
2017-04-13T09:20:25.895Z,99.48
2017-04-13T09:21:25.881Z,99.52
2017-04-13T09:22:25.859Z,99.95
2017-04-13T09:23:25.839Z,99.48
2017-04-13T09:24:25.512Z,99.33
2017-04-13T09:25:25.494Z,99.43
2017-04-13T09:26:25.478Z,99.43
2017-04-13T09:27:25.767Z,98.94
2017-04-13T09:28:25.445Z,99.28
2017-04-13T09:29:25.732Z,98.9
2017-04-13T09:30:25.714Z,99.19
2017-04-13T09:31:25.694Z,99.38
2017-04-13T09:32:25.377Z,99.76
2017-04-13T09:33:25.661Z,99.28
2017-04-13T09:34:25.640Z,98.9
2017-04-13T09:35:25.622Z,98.99
2017-04-13T09:36:25.305Z,99.19
2017-04-13T09:37:25.593Z,99.09
2017-04-13T09:38:25.573Z,98.42
2017-04-13T09:39:25.543Z,99.38
2017-04-13T09:40:25.221Z,98.61
2017-04-13T09:41:25.208Z,99.04
2017-04-13T09:42:25.502Z,99.04
2017-04-13T09:43:25.557Z,99.43
2017-04-13T09:44:25.462Z,99.43
2017-04-13T09:45:25.461Z,99.04
2017-04-13T09:46:25.435Z,98.13
2017-04-13T09:47:25.421Z,97.66
2017-04-13T09:48:25.382Z,97.47
2017-04-13T09:49:25.396Z,96.61
2017-04-13T09:50:25.360Z,96.32
2017-04-13T09:51:25.330Z,96.61
2017-04-13T09:52:25.328Z,96.99
2017-04-13T09:53:25.298Z,96.94
2017-04-13T09:54:25.320Z,97.03
2017-04-13T09:55:25.034Z,96.8
2017-04-13T09:56:25.252Z,96.75
2017-04-13T09:57:25.229Z,96.94
2017-04-13T09:58:25.199Z,96.56
2017-04-13T09:59:25.180Z,97.18
2017-04-13T10:00:24.866Z,96.61
2017-04-13T10:01:25.171Z,96.75
2017-04-13T10:02:25.142Z,96.94
2017-04-13T10:03:25.111Z,98.08
2017-04-13T10:04:25.096Z,98.18
2017-04-13T10:05:24.776Z,97.8
2017-04-13T10:06:25.070Z,97.47
2017-04-13T10:07:25.034Z,97.37
2017-04-13T10:08:25.022Z,96.89
2017-04-13T10:09:25.001Z,96.8
2017-04-13T10:10:24.680Z,96.89
2017-04-13T10:11:24.666Z,96.03
2017-04-13T10:12:24.974Z,96.13
2017-04-13T10:13:24.939Z,95.56
2017-04-13T10:14:24.922Z,95.65
2017-04-13T10:15:24.913Z,96.03
2017-04-13T10:16:24.896Z,95.75
2017-04-13T10:17:24.588Z,95.65
2017-04-13T10:18:24.845Z,95.65
2017-04-13T10:19:24.521Z,95.27
2017-04-13T10:20:24.493Z,95.84
2017-04-13T10:21:24.470Z,96.03
2017-04-13T10:22:24.783Z,96.32
2017-04-13T10:23:24.443Z,95.94
2017-04-13T10:24:24.422Z,94.79
2017-04-13T10:25:24.711Z,94.46
2017-04-13T10:26:24.712Z,94.46
2017-04-13T10:27:24.383Z,94.65
2017-04-13T10:28:24.666Z,96.37
2017-04-13T10:29:24.640Z,97.32
2017-04-13T10:30:24.622Z,98.57
2017-04-13T10:31:24.303Z,98.66
2017-04-13T10:32:24.592Z,98.57
2017-04-13T10:33:24.571Z,96.66
2017-04-13T10:34:24.540Z,96.08
2017-04-13T10:35:24.525Z,94.93
2017-04-13T10:36:24.512Z,95.22
2017-04-13T10:37:24.186Z,94.07
2017-04-13T10:38:24.480Z,93.21
2017-04-13T10:39:24.452Z,93.79
2017-04-13T10:40:24.436Z,93.31
2017-04-13T10:41:24.422Z,94.07
2017-04-13T10:42:24.406Z,95.12
2017-04-13T10:43:24.395Z,96.27
2017-04-13T10:44:24.373Z,97.42
2017-04-13T10:45:24.356Z,98.08
2017-04-13T10:46:24.323Z,98.57
2017-04-13T10:47:24.011Z,99.23
2017-04-13T10:48:24.317Z,99.71
2017-04-13T10:49:24.281Z,99.99
2017-04-13T10:50:23.956Z,99.99
2017-04-13T10:51:24.241Z,99.99
2017-04-13T10:52:24.335Z,99.99
2017-04-13T10:53:24.203Z,99.99
2017-04-13T10:54:24.187Z,99.99
2017-04-13T10:55:24.172Z,99.99
2017-04-13T10:56:24.152Z,99.99
2017-04-13T10:57:24.136Z,99.99
2017-04-13T10:58:23.802Z,99.99
2017-04-13T10:59:24.096Z,99.99
2017-04-13T11:00:24.087Z,99.99
2017-04-13T11:01:24.054Z,99.99
2017-04-13T11:02:24.145Z,99.99
2017-04-13T11:03:24.014Z,99.99
2017-04-13T11:04:23.995Z,99.99
2017-04-13T11:05:23.973Z,99.99
2017-04-13T11:06:23.963Z,99.99
2017-04-13T11:07:24.048Z,99.99
2017-04-13T11:08:23.912Z,99.99
2017-04-13T11:09:23.914Z,98.85
2017-04-13T11:10:23.887Z,99.04
2017-04-13T11:11:23.868Z,99.99
2017-04-13T11:12:23.846Z,99.99
2017-04-13T11:13:23.615Z,99.99
2017-04-13T11:14:23.804Z,99.99
2017-04-13T11:15:23.805Z,99.99
2017-04-13T11:16:23.765Z,99.99
2017-04-13T11:17:23.743Z,99.99
2017-04-13T11:18:23.723Z,99.99
2017-04-13T11:19:23.723Z,99.99
2017-04-13T11:20:23.683Z,99.99
2017-04-13T11:21:23.679Z,99.99
2017-04-13T11:22:23.763Z,99.99
2017-04-13T11:23:23.637Z,99.99
2017-04-13T11:24:23.616Z,99.99
2017-04-13T11:25:23.592Z,99.99
2017-04-13T11:26:23.273Z,99.99
2017-04-13T11:27:23.244Z,99.99
2017-04-13T11:28:23.543Z,99.99
2017-04-13T11:29:23.535Z,99.99
2017-04-13T11:30:23.493Z,99.99
2017-04-13T11:31:23.489Z,99.99
2017-04-13T11:32:23.459Z,99.99
2017-04-13T11:33:23.469Z,99.8
2017-04-13T11:34:23.112Z,99.61
2017-04-13T11:35:23.404Z,99.99
2017-04-13T11:36:23.383Z,99.99
2017-04-13T11:37:23.076Z,99.99
2017-04-13T11:38:23.353Z,99.99
2017-04-13T11:39:23.325Z,99.85
2017-04-13T11:40:23.302Z,99.76
2017-04-13T11:41:22.995Z,99.99
2017-04-13T11:42:23.059Z,99.99
2017-04-13T11:43:23.265Z,99.99
2017-04-13T11:44:23.225Z,99.99
2017-04-13T11:45:23.004Z,99.99
2017-04-13T11:46:22.884Z,98.99
2017-04-13T11:47:22.964Z,98.99
2017-04-13T11:48:23.152Z,99.37
2017-04-13T11:49:23.130Z,99.99
2017-04-13T11:50:23.112Z,99.99
2017-04-13T11:51:22.887Z,99.99
2017-04-13T11:52:23.079Z,99.99
2017-04-13T11:53:23.053Z,99.76
2017-04-13T11:54:23.034Z,98.99
2017-04-13T11:55:23.016Z,98.99
2017-04-13T11:56:23.003Z,99.18
2017-04-13T11:57:23.169Z,99.95
2017-04-13T11:58:22.957Z,99.99
2017-04-13T11:59:22.638Z,99.66
2017-04-13T12:00:22.919Z,99.99
2017-04-13T12:01:22.908Z,99.99
2017-04-13T12:02:22.885Z,99.99
2017-04-13T12:03:22.864Z,99.85
2017-04-13T12:04:22.854Z,99.99
2017-04-13T12:05:22.824Z,99.85
2017-04-13T12:06:22.823Z,99.66
2017-04-13T12:07:22.791Z,99.99
2017-04-13T12:08:22.471Z,99.99
2017-04-13T12:09:22.453Z,98.94
2017-04-13T12:10:22.734Z,98.66
2017-04-13T12:11:22.723Z,98.94
2017-04-13T12:12:22.393Z,98.85
2017-04-13T12:13:22.370Z,98.37
2017-04-13T12:14:22.353Z,98.71
2017-04-13T12:15:22.343Z,97.56
2017-04-13T12:16:22.313Z,96.89
2017-04-13T12:17:22.301Z,96.7
2017-04-13T12:18:22.277Z,96.8
2017-04-13T12:19:22.563Z,95.89
2017-04-13T12:20:22.554Z,94.55
2017-04-13T12:21:22.536Z,94.36
2017-04-13T12:22:22.206Z,94.12
2017-04-13T12:23:22.507Z,92.69
2017-04-13T12:24:22.173Z,93.35
2017-04-13T12:25:22.468Z,93.93
2017-04-13T12:26:22.192Z,93.21
2017-04-13T12:27:22.128Z,92.06
2017-04-13T12:28:22.108Z,91.97
2017-04-13T12:29:22.093Z,91.58
2017-04-13T12:30:22.065Z,90.72
2017-04-13T12:31:22.055Z,89.48
2017-04-13T12:32:22.034Z,88.95
2017-04-13T12:33:22.016Z,87.51
2017-04-13T12:34:22.006Z,87.85
2017-04-13T12:35:21.993Z,87.95
2017-04-13T12:36:22.279Z,88.04
2017-04-13T12:37:22.268Z,89.38
2017-04-13T12:38:22.232Z,87.99
2017-04-13T12:39:21.925Z,87.8
2017-04-13T12:40:21.912Z,88.04
2017-04-13T12:41:22.197Z,87.56
2017-04-13T12:42:22.173Z,87.18
2017-04-13T12:43:21.846Z,89.48
2017-04-13T12:44:21.848Z,91.35
2017-04-13T12:45:21.832Z,92.69
2017-04-13T12:46:22.111Z,92.35
2017-04-13T12:47:22.103Z,92.21
2017-04-13T12:48:22.073Z,92.11
2017-04-13T12:49:22.054Z,91.93
2017-04-13T12:50:22.035Z,91.69
2017-04-13T12:51:22.026Z,92.55
2017-04-13T12:52:22.005Z,92.93